createdAt,value
2022-12-04T00:01:26.917Z,86.06
2022-12-04T00:03:56.338Z,85.91
2022-12-04T00:06:25.318Z,86.14
2022-12-04T00:08:53.811Z,85.95
2022-12-04T00:11:24.196Z,85.70
2022-12-04T00:13:52.784Z,85.75
2022-12-04T00:16:23.204Z,86.00
2022-12-04T00:18:53.016Z,85.83
2022-12-04T00:21:21.783Z,85.74
2022-12-04T00:23:50.315Z,85.95
2022-12-04T00:26:20.178Z,85.79
2022-12-04T00:28:48.758Z,85.76
2022-12-04T00:31:18.405Z,85.99
2022-12-04T00:33:46.928Z,85.92
2022-12-04T00:36:19.011Z,85.81
2022-12-04T00:38:47.245Z,85.82
2022-12-04T00:41:17.979Z,85.70
2022-12-04T00:43:46.849Z,85.91
2022-12-04T00:46:15.558Z,85.73
2022-12-04T00:48:44.381Z,85.78
2022-12-04T00:51:15.515Z,85.77
2022-12-04T00:53:45.229Z,85.85
2022-12-04T00:56:14.974Z,86.03
2022-12-04T00:58:44.046Z,85.90
2022-12-04T01:01:14.278Z,85.42
2022-12-04T01:03:42.989Z,85.63
2022-12-04T01:06:20.254Z,85.89
2022-12-04T01:08:50.385Z,85.84
2022-12-04T01:11:19.207Z,85.68
2022-12-04T01:13:47.446Z,85.83
2022-12-04T01:16:20.295Z,85.60
2022-12-04T01:18:48.744Z,85.66
2022-12-04T01:21:17.035Z,85.83
2022-12-04T01:23:45.209Z,85.98
2022-12-04T01:26:14.918Z,85.93
2022-12-04T01:28:43.313Z,85.97
2022-12-04T01:31:14.430Z,85.93
2022-12-04T01:33:43.741Z,86.13
2022-12-04T01:36:13.872Z,85.94
2022-12-04T01:38:42.550Z,85.89
2022-12-04T01:41:12.052Z,86.00
2022-12-04T01:43:42.155Z,85.78
2022-12-04T01:46:11.774Z,85.81
2022-12-04T01:48:43.621Z,85.92
2022-12-04T01:51:16.392Z,85.84
2022-12-04T01:53:48.837Z,85.65
2022-12-04T01:56:17.969Z,85.82
2022-12-04T01:58:52.140Z,85.86
2022-12-04T02:01:20.356Z,85.67
2022-12-04T02:03:48.534Z,85.91
2022-12-04T02:06:16.708Z,86.01
2022-12-04T02:08:44.867Z,85.86
2022-12-04T02:11:21.871Z,85.94
2022-12-04T02:13:58.132Z,85.89
2022-12-04T02:16:31.762Z,85.94
2022-12-04T02:19:08.912Z,85.82
2022-12-04T02:21:39.067Z,86.01
2022-12-04T02:24:37.361Z,85.98
2022-12-04T02:27:07.395Z,85.88
2022-12-04T02:29:41.113Z,85.83
2022-12-04T02:32:17.239Z,85.77
2022-12-04T02:34:47.972Z,85.88
2022-12-04T02:37:20.298Z,85.81
2022-12-04T02:39:53.641Z,85.90
2022-12-04T02:42:29.739Z,85.89
2022-12-04T02:45:02.864Z,86.14
2022-12-04T02:47:32.221Z,85.98
2022-12-04T02:50:02.774Z,85.94
2022-12-04T02:52:33.595Z,86.15
2022-12-04T02:55:08.323Z,85.86
2022-12-04T02:57:39.814Z,85.76
2022-12-04T03:00:11.326Z,85.89
2022-12-04T03:02:42.404Z,85.89
2022-12-04T03:05:14.016Z,85.80
2022-12-04T03:07:47.109Z,85.97
2022-12-04T03:10:18.343Z,85.96
2022-12-04T03:12:51.958Z,85.99
2022-12-04T03:15:27.716Z,86.02
2022-12-04T03:18:01.540Z,86.03
2022-12-04T03:20:32.106Z,85.93
2022-12-04T03:23:03.136Z,85.92
2022-12-04T03:25:35.943Z,85.81
2022-12-04T03:28:06.491Z,85.84
2022-12-04T03:30:40.893Z,85.92
2022-12-04T03:33:12.828Z,85.78
2022-12-04T03:35:45.879Z,86.04
2022-12-04T03:38:18.759Z,86.06
2022-12-04T03:40:54.751Z,85.98
2022-12-04T03:43:27.665Z,85.99
2022-12-04T03:46:00.075Z,85.91
2022-12-04T03:48:32.988Z,85.96
2022-12-04T03:51:04.959Z,85.95
2022-12-04T03:53:37.716Z,85.86
2022-12-04T03:56:11.058Z,85.95
2022-12-04T03:58:42.603Z,86.06
2022-12-04T04:01:13.812Z,86.02
2022-12-04T04:03:45.915Z,86.05
2022-12-04T04:06:19.252Z,86.03
2022-12-04T04:08:51.725Z,86.02
2022-12-04T04:11:23.685Z,86.02
2022-12-04T04:14:11.771Z,86.21
2022-12-04T04:17:02.533Z,86.06
2022-12-04T04:19:50.544Z,86.13
2022-12-04T04:22:37.747Z,86.05
2022-12-04T04:25:08.939Z,86.02
2022-12-04T04:27:37.067Z,85.96
2022-12-04T04:30:06.078Z,86.06
2022-12-04T04:32:39.362Z,86.07
2022-12-04T04:35:15.608Z,86.13
2022-12-04T04:37:52.897Z,86.12
2022-12-04T04:40:26.323Z,86.08
2022-12-04T04:43:01.076Z,86.22
2022-12-04T04:45:34.429Z,86.06
2022-12-04T04:48:07.503Z,86.07
2022-12-04T04:50:36.338Z,86.16
2022-12-04T04:53:06.828Z,86.19
2022-12-04T04:55:35.854Z,86.02
2022-12-04T04:58:12.040Z,86.16
2022-12-04T05:00:40.456Z,86.08
2022-12-04T05:03:10.868Z,86.20
2022-12-04T05:05:39.077Z,86.12
2022-12-04T05:08:07.465Z,86.18
2022-12-04T05:10:35.733Z,86.14
2022-12-04T05:13:03.898Z,86.17
2022-12-04T05:15:32.063Z,86.06
2022-12-04T05:18:00.186Z,86.24
2022-12-04T05:20:29.722Z,86.13
2022-12-04T05:22:58.300Z,86.22
2022-12-04T05:25:26.560Z,86.23
2022-12-04T05:27:54.742Z,86.22
2022-12-04T05:30:22.877Z,86.22
2022-12-04T05:32:51.176Z,86.20
2022-12-04T05:35:19.315Z,86.25
2022-12-04T05:37:48.833Z,86.35
2022-12-04T05:40:17.250Z,86.30
2022-12-04T05:42:45.376Z,86.20
2022-12-04T05:45:13.535Z,86.37
2022-12-04T05:47:41.911Z,86.34
2022-12-04T05:50:12.189Z,86.43
2022-12-04T05:52:40.564Z,86.46
2022-12-04T05:55:10.533Z,86.42
2022-12-04T05:57:38.704Z,86.44
2022-12-04T06:00:08.707Z,86.38
2022-12-04T06:02:36.961Z,86.47
2022-12-04T06:05:05.796Z,86.46
2022-12-04T06:07:33.992Z,86.45
2022-12-04T06:10:02.262Z,86.49
2022-12-04T06:12:32.361Z,86.55
2022-12-04T06:15:00.515Z,86.57
2022-12-04T06:17:28.667Z,86.65
2022-12-04T06:19:57.153Z,86.59
2022-12-04T06:22:25.493Z,86.63
2022-12-04T06:24:53.630Z,86.53
2022-12-04T06:27:29.111Z,86.44
2022-12-04T06:29:59.037Z,86.43
2022-12-04T06:32:27.425Z,86.43
2022-12-04T06:34:56.268Z,86.29
2022-12-04T06:37:25.852Z,86.44
2022-12-04T06:39:54.215Z,86.34
2022-12-04T06:42:22.485Z,86.42
2022-12-04T06:44:50.772Z,86.41
2022-12-04T06:47:20.327Z,86.40
2022-12-04T06:49:50.951Z,86.50
2022-12-04T06:52:19.510Z,86.46
2022-12-04T06:54:47.659Z,86.36
2022-12-04T06:57:15.835Z,86.47
2022-12-04T06:59:44.007Z,86.49
2022-12-04T07:02:12.157Z,86.50
2022-12-04T07:04:41.790Z,86.50
2022-12-04T07:07:10.754Z,86.30
2022-12-04T07:09:38.949Z,86.49
2022-12-04T07:12:07.648Z,86.55
2022-12-04T07:14:35.765Z,86.63
2022-12-04T07:17:03.975Z,86.79
2022-12-04T07:19:32.206Z,86.75
2022-12-04T07:22:01.712Z,86.83
2022-12-04T07:24:29.856Z,86.70
2022-12-04T07:26:58.073Z,86.68
2022-12-04T07:29:26.236Z,86.81
2022-12-04T07:31:54.411Z,86.78
2022-12-04T07:34:22.625Z,86.79
2022-12-04T07:36:50.736Z,86.74
2022-12-04T07:39:20.293Z,86.79
2022-12-04T07:41:48.434Z,86.79
2022-12-04T07:44:16.704Z,86.71
2022-12-04T07:46:44.836Z,86.70
2022-12-04T07:49:13.901Z,86.62
2022-12-04T07:51:42.294Z,86.70
2022-12-04T07:54:10.447Z,86.68
2022-12-04T07:56:39.972Z,86.68
2022-12-04T07:59:08.177Z,86.75
2022-12-04T08:01:36.391Z,86.54
2022-12-04T08:04:04.846Z,86.53
2022-12-04T08:06:35.165Z,86.64
2022-12-04T08:09:09.202Z,86.57
2022-12-04T08:11:39.772Z,86.51
2022-12-04T08:14:09.698Z,86.36
2022-12-04T08:16:38.169Z,86.47
2022-12-04T08:19:06.522Z,86.31
2022-12-04T08:21:34.865Z,86.31
2022-12-04T08:24:03.847Z,86.48
2022-12-04T08:26:33.465Z,86.37
2022-12-04T08:29:03.814Z,86.29
2022-12-04T08:31:33.905Z,86.22
2022-12-04T08:34:04.267Z,86.31
2022-12-04T08:36:33.029Z,86.34
2022-12-04T08:39:01.209Z,86.23
2022-12-04T08:41:29.351Z,86.25
2022-12-04T08:43:57.982Z,86.24
2022-12-04T08:46:29.026Z,86.18
2022-12-04T08:48:57.838Z,86.15
2022-12-04T08:51:27.634Z,85.98
2022-12-04T08:53:56.980Z,86.14
2022-12-04T08:56:25.772Z,86.06
2022-12-04T08:58:54.360Z,86.08
2022-12-04T09:01:22.594Z,86.21
2022-12-04T09:03:52.639Z,86.10
2022-12-04T09:06:21.431Z,86.02
2022-12-04T09:08:52.479Z,85.94
2022-12-04T09:11:22.307Z,86.10
2022-12-04T09:13:50.523Z,85.98
2022-12-04T09:16:20.382Z,86.13
2022-12-04T09:18:49.455Z,86.09
2022-12-04T09:21:20.255Z,85.99
2022-12-04T09:23:48.421Z,86.00
2022-12-04T09:26:20.095Z,85.93
2022-12-04T09:28:48.810Z,85.66
2022-12-04T09:31:17.447Z,85.73
2022-12-04T09:33:45.833Z,85.80
2022-12-04T09:36:16.293Z,85.71
2022-12-04T09:38:47.052Z,85.63
2022-12-04T09:41:27.390Z,85.55
2022-12-04T09:43:59.173Z,85.61
2022-12-04T09:46:30.276Z,85.65
2022-12-04T09:48:59.612Z,85.52
2022-12-04T09:51:28.897Z,85.52
2022-12-04T09:54:01.906Z,85.61
2022-12-04T09:56:31.763Z,85.61
2022-12-04T09:59:06.131Z,85.49
2022-12-04T10:01:47.423Z,85.45
2022-12-04T10:04:17.131Z,85.60
2022-12-04T10:06:49.480Z,85.48
2022-12-04T10:09:23.291Z,85.57
2022-12-04T10:11:57.675Z,85.70
2022-12-04T10:14:49.473Z,85.50
2022-12-04T10:17:48.696Z,85.46
2022-12-04T10:20:27.297Z,85.17
2022-12-04T10:23:03.876Z,84.69
2022-12-04T10:25:35.730Z,84.54
2022-12-04T10:28:12.478Z,84.26
2022-12-04T10:30:42.669Z,84.35
2022-12-04T10:33:17.984Z,84.26
2022-12-04T10:35:48.820Z,84.48
2022-12-04T10:38:27.309Z,84.52
2022-12-04T10:40:59.109Z,84.57
2022-12-04T10:43:35.904Z,84.73
2022-12-04T10:46:04.451Z,84.61
2022-12-04T10:48:39.099Z,84.24
2022-12-04T10:51:07.825Z,83.77
2022-12-04T10:53:38.530Z,83.70
2022-12-04T10:56:14.725Z,83.41
2022-12-04T10:58:43.332Z,83.24
2022-12-04T11:01:15.547Z,83.50
2022-12-04T11:03:45.334Z,83.16
2022-12-04T11:06:15.862Z,83.03
2022-12-04T11:08:45.720Z,83.21
2022-12-04T11:11:17.385Z,83.53
2022-12-04T11:13:45.529Z,83.49
2022-12-04T11:16:33.266Z,83.31
2022-12-04T11:19:01.464Z,83.38
2022-12-04T11:21:31.136Z,83.47
2022-12-04T11:23:59.670Z,83.53
2022-12-04T11:26:34.864Z,83.60
2022-12-04T11:29:06.866Z,83.62
2022-12-04T11:31:35.168Z,83.72
2022-12-04T11:34:06.474Z,83.78
2022-12-04T11:36:40.461Z,83.16
2022-12-04T11:39:19.970Z,83.27
2022-12-04T11:42:00.065Z,83.54
2022-12-04T11:44:31.012Z,83.58
2022-12-04T11:47:03.028Z,83.74
2022-12-04T11:49:33.967Z,83.66
2022-12-04T11:52:24.233Z,83.64
2022-12-04T11:55:04.592Z,83.46
2022-12-04T11:57:41.783Z,83.67
2022-12-04T12:00:16.340Z,83.63
2022-12-04T12:03:07.299Z,83.45
2022-12-04T12:06:01.818Z,83.52
2022-12-04T12:08:49.410Z,83.42
2022-12-04T12:11:25.911Z,83.43
2022-12-04T12:14:04.912Z,83.41
2022-12-04T12:16:51.379Z,83.40
2022-12-04T12:19:55.762Z,83.43
2022-12-04T12:23:03.899Z,83.52
2022-12-04T12:25:40.884Z,83.32
2022-12-04T12:28:26.553Z,83.37
2022-12-04T12:31:13.711Z,83.34
2022-12-04T12:33:47.916Z,83.15
2022-12-04T12:36:17.095Z,83.50
2022-12-04T12:38:50.775Z,83.52
2022-12-04T12:41:25.021Z,83.25
2022-12-04T12:44:02.809Z,83.51
2022-12-04T12:46:38.740Z,83.48
2022-12-04T12:49:16.260Z,83.55
2022-12-04T12:51:51.914Z,83.46
2022-12-04T12:54:33.904Z,83.59
2022-12-04T12:57:11.730Z,83.26
2022-12-04T12:59:47.340Z,83.32
2022-12-04T13:02:28.552Z,83.24
2022-12-04T13:05:01.364Z,83.24
2022-12-04T13:07:42.028Z,83.24
2022-12-04T13:10:17.563Z,83.17
2022-12-04T13:12:51.705Z,83.20
2022-12-04T13:15:24.986Z,83.31
2022-12-04T13:17:58.234Z,83.37
2022-12-04T13:20:31.521Z,83.25
2022-12-04T13:23:20.991Z,83.02
2022-12-04T13:26:01.791Z,83.33
2022-12-04T13:28:45.235Z,83.58
2022-12-04T13:31:26.685Z,83.39
2022-12-04T13:34:24.086Z,83.27
2022-12-04T13:37:13.348Z,83.41
2022-12-04T13:40:33.607Z,83.38
2022-12-04T13:43:33.209Z,83.46
2022-12-04T13:46:05.703Z,83.60
2022-12-04T13:48:40.768Z,83.50
2022-12-04T13:51:37.197Z,83.34
2022-12-04T13:54:31.207Z,83.44
2022-12-04T13:57:19.577Z,83.47
2022-12-04T13:59:48.919Z,83.45
2022-12-04T14:02:29.779Z,83.59
2022-12-04T14:05:01.773Z,83.56
2022-12-04T14:07:35.675Z,83.51
2022-12-04T14:10:08.839Z,83.65
2022-12-04T14:12:41.759Z,83.58
2022-12-04T14:15:22.643Z,83.53
2022-12-04T14:18:01.079Z,83.52
2022-12-04T14:20:32.463Z,83.52
2022-12-04T14:23:26.463Z,83.45
2022-12-04T14:25:57.798Z,83.53
2022-12-04T14:28:42.059Z,83.42
2022-12-04T14:31:35.608Z,83.60
2022-12-04T14:34:23.787Z,83.79
2022-12-04T14:36:55.615Z,83.86
2022-12-04T14:39:29.547Z,83.80
2022-12-04T14:42:08.655Z,83.91
2022-12-04T14:44:37.030Z,83.78
2022-12-04T14:47:24.956Z,83.87
2022-12-04T14:50:15.055Z,83.88
2022-12-04T14:52:50.888Z,83.98
2022-12-04T14:55:31.833Z,84.01
2022-12-04T14:58:23.983Z,83.99
2022-12-04T15:00:53.908Z,83.90
2022-12-04T15:03:23.133Z,84.04
2022-12-04T15:05:53.264Z,84.25
2022-12-04T15:08:21.930Z,84.10
2022-12-04T15:11:06.729Z,84.34
2022-12-04T15:13:38.427Z,84.43
2022-12-04T15:16:12.092Z,84.31
2022-12-04T15:18:40.515Z,84.58
2022-12-04T15:21:12.035Z,84.48
2022-12-04T15:23:42.614Z,84.58
2022-12-04T15:26:17.962Z,84.44
2022-12-04T15:28:51.340Z,84.56
2022-12-04T15:31:24.395Z,84.50
2022-12-04T15:33:56.739Z,84.53
2022-12-04T15:36:41.454Z,84.77
2022-12-04T15:39:13.875Z,84.76
2022-12-04T15:41:43.635Z,84.91
2022-12-04T15:44:28.653Z,84.74
2022-12-04T15:47:00.120Z,84.72
2022-12-04T15:49:31.016Z,84.79
2022-12-04T15:52:08.930Z,84.82
2022-12-04T15:54:38.651Z,84.99
2022-12-04T15:57:22.506Z,84.92
2022-12-04T15:59:53.659Z,84.96
2022-12-04T16:02:27.085Z,85.15
2022-12-04T16:04:55.722Z,85.06
2022-12-04T16:07:27.128Z,85.26
2022-12-04T16:10:03.273Z,85.08
2022-12-04T16:12:34.269Z,85.12
2022-12-04T16:15:03.071Z,85.36
2022-12-04T16:17:34.332Z,85.39
2022-12-04T16:20:06.770Z,85.35
2022-12-04T16:22:35.247Z,85.24
2022-12-04T16:25:03.798Z,85.52
2022-12-04T16:27:33.560Z,85.47
2022-12-04T16:30:01.944Z,85.52
2022-12-04T16:32:33.684Z,85.63
2022-12-04T16:35:02.702Z,85.52
2022-12-04T16:37:31.766Z,85.63
2022-12-04T16:40:01.349Z,85.55
2022-12-04T16:42:31.025Z,85.85
2022-12-04T16:45:00.826Z,85.74
2022-12-04T16:47:29.494Z,85.78
2022-12-04T16:49:57.900Z,85.89
2022-12-04T16:52:26.330Z,85.92
2022-12-04T16:54:55.012Z,85.96
2022-12-04T16:57:23.751Z,86.42
2022-12-04T16:59:52.198Z,86.32
2022-12-04T17:02:27.894Z,86.49
2022-12-04T17:04:58.071Z,86.50
2022-12-04T17:07:26.844Z,86.41
2022-12-04T17:09:55.211Z,86.65
2022-12-04T17:12:23.692Z,86.62
2022-12-04T17:14:52.107Z,86.91
2022-12-04T17:17:21.874Z,86.82
2022-12-04T17:19:50.253Z,86.76
2022-12-04T17:22:21.056Z,86.87
2022-12-04T17:24:55.765Z,87.09
2022-12-04T17:27:25.980Z,87.12
2022-12-04T17:29:54.471Z,87.11
2022-12-04T17:32:24.617Z,87.10
2022-12-04T17:34:54.890Z,87.25
2022-12-04T17:37:26.462Z,87.32
2022-12-04T17:39:54.915Z,87.21
2022-12-04T17:42:23.301Z,87.32
2022-12-04T17:44:51.792Z,87.51
2022-12-04T17:47:20.221Z,87.41
2022-12-04T17:49:49.964Z,87.62
2022-12-04T17:52:22.264Z,87.71
2022-12-04T17:54:51.943Z,87.52
2022-12-04T17:57:21.445Z,87.79
2022-12-04T17:59:50.407Z,87.66
2022-12-04T18:02:18.953Z,87.79
2022-12-04T18:04:47.329Z,87.92
2022-12-04T18:07:17.065Z,88.03
2022-12-04T18:09:45.424Z,87.95
2022-12-04T18:12:14.444Z,88.06
2022-12-04T18:14:43.090Z,88.09
2022-12-04T18:17:11.523Z,88.17
2022-12-04T18:19:39.887Z,88.28
2022-12-04T18:22:08.235Z,88.31
2022-12-04T18:24:38.002Z,88.38
2022-12-04T18:27:06.395Z,88.35
2022-12-04T18:29:34.775Z,88.38
2022-12-04T18:32:03.270Z,88.41
2022-12-04T18:34:31.679Z,88.65
2022-12-04T18:37:00.088Z,88.60
2022-12-04T18:39:30.126Z,88.53
2022-12-04T18:41:59.888Z,88.62
2022-12-04T18:44:28.322Z,88.51
2022-12-04T18:46:56.684Z,88.56
2022-12-04T18:49:25.071Z,88.74
2022-12-04T18:51:53.472Z,88.50
2022-12-04T18:54:25.077Z,88.66
2022-12-04T18:56:53.844Z,88.71
2022-12-04T18:59:25.736Z,88.58
2022-12-04T19:01:55.044Z,88.68
2022-12-04T19:04:26.128Z,88.71
2022-12-04T19:06:57.028Z,88.58
2022-12-04T19:10:02.141Z,88.74
2022-12-04T19:12:17.412Z,88.83
2022-12-04T19:14:47.167Z,88.70
2022-12-04T19:17:15.965Z,88.76
2022-12-04T19:19:44.356Z,88.68
2022-12-04T19:22:13.199Z,88.79
2022-12-04T19:24:42.018Z,88.80
2022-12-04T19:27:11.677Z,88.79
2022-12-04T19:29:41.592Z,88.64
2022-12-04T19:32:12.775Z,88.82
2022-12-04T19:34:41.937Z,88.72
2022-12-04T19:37:10.421Z,88.84
2022-12-04T19:39:39.156Z,88.91
2022-12-04T19:42:07.842Z,89.04
2022-12-04T19:44:51.730Z,88.89
2022-12-04T19:47:21.480Z,89.07
2022-12-04T19:49:49.919Z,89.14
2022-12-04T19:52:18.976Z,89.13
2022-12-04T19:54:47.422Z,89.01
2022-12-04T19:57:16.011Z,89.20
2022-12-04T19:59:46.477Z,89.11
2022-12-04T20:02:16.086Z,89.37
2022-12-04T20:04:46.171Z,89.29
2022-12-04T20:07:14.804Z,89.29
2022-12-04T20:09:46.135Z,89.26
2022-12-04T20:12:18.913Z,89.29
2022-12-04T20:14:47.293Z,89.34
2022-12-04T20:17:15.803Z,89.26
2022-12-04T20:19:45.527Z,89.29
2022-12-04T20:22:13.881Z,89.50
2022-12-04T20:24:43.036Z,89.48
2022-12-04T20:27:11.568Z,89.53
2022-12-04T20:29:39.948Z,89.54
2022-12-04T20:32:08.395Z,89.73
2022-12-04T20:34:43.046Z,89.57
2022-12-04T20:37:13.673Z,89.80
2022-12-04T20:39:42.253Z,89.80
2022-12-04T20:42:10.634Z,89.96
2022-12-04T20:44:39.028Z,90.09
2022-12-04T20:47:07.439Z,89.95
2022-12-04T20:49:35.881Z,89.99
2022-12-04T20:52:05.069Z,90.21
2022-12-04T20:54:41.075Z,90.17
2022-12-04T20:57:10.289Z,90.39
2022-12-04T20:59:38.894Z,90.16
2022-12-04T21:02:07.269Z,90.26
2022-12-04T21:04:38.717Z,90.41
2022-12-04T21:07:07.197Z,90.27
2022-12-04T21:09:36.995Z,90.28
2022-12-04T21:12:27.335Z,90.48
2022-12-04T21:15:13.002Z,90.66
2022-12-04T21:17:41.733Z,90.56
2022-12-04T21:20:11.375Z,90.53
2022-12-04T21:22:39.754Z,90.72
2022-12-04T21:25:10.205Z,90.85
2022-12-04T21:27:38.590Z,90.83
2022-12-04T21:30:08.935Z,90.91
2022-12-04T21:32:37.321Z,90.81
2022-12-04T21:35:06.319Z,90.98
2022-12-04T21:37:34.712Z,91.09
2022-12-04T21:40:03.831Z,91.02
2022-12-04T21:42:34.506Z,90.96
2022-12-04T21:45:05.967Z,90.96
2022-12-04T21:47:34.636Z,91.00
2022-12-04T21:50:03.024Z,91.14
2022-12-04T21:52:31.676Z,91.10
2022-12-04T21:55:00.034Z,91.09
2022-12-04T21:57:30.072Z,91.29
2022-12-04T22:00:00.036Z,91.28
2022-12-04T22:02:28.706Z,91.59
2022-12-04T22:04:57.091Z,91.44
2022-12-04T22:07:25.494Z,91.36
2022-12-04T22:09:53.857Z,91.56
2022-12-04T22:15:12.741Z,91.56
2022-12-04T22:17:41.399Z,91.70
2022-12-04T22:20:11.118Z,91.68
2022-12-04T22:22:39.504Z,91.79
2022-12-04T22:25:08.856Z,91.81
2022-12-04T22:27:37.201Z,91.78
2022-12-04T22:30:08.095Z,91.76
2022-12-04T22:32:37.952Z,91.95
2022-12-04T22:35:07.417Z,91.93
2022-12-04T22:37:38.528Z,92.05
2022-12-04T22:40:13.132Z,92.11
2022-12-04T22:42:41.576Z,92.19
2022-12-04T22:45:11.511Z,92.16
2022-12-04T22:47:41.280Z,92.22
2022-12-04T22:50:10.759Z,92.29
2022-12-04T22:52:39.384Z,92.33
2022-12-04T22:55:08.602Z,92.38
2022-12-04T22:57:36.924Z,92.36
2022-12-04T23:00:07.874Z,92.42
2022-12-04T23:02:36.289Z,92.53
2022-12-04T23:05:06.518Z,92.39
2022-12-04T23:07:35.018Z,92.47
2022-12-04T23:10:03.412Z,92.65
2022-12-04T23:12:31.877Z,92.56
2022-12-04T23:15:00.204Z,92.66
2022-12-04T23:17:28.725Z,92.70
2022-12-04T23:19:57.427Z,92.78
2022-12-04T23:22:28.049Z,92.86
2022-12-04T23:24:56.381Z,92.93
2022-12-04T23:27:24.734Z,92.80
2022-12-04T23:29:53.926Z,92.88
2022-12-04T23:32:22.390Z,92.74
2022-12-04T23:34:52.943Z,92.95
2022-12-04T23:37:21.325Z,92.99
2022-12-04T23:39:51.215Z,93.03
2022-12-04T23:42:19.557Z,93.11
2022-12-04T23:44:47.925Z,93.12
2022-12-04T23:47:16.317Z,93.04
2022-12-04T23:49:44.742Z,93.04
2022-12-04T23:52:13.097Z,93.41
2022-12-04T23:54:41.497Z,93.30
2022-12-04T23:57:11.265Z,93.41
2022-12-04T23:59:39.823Z,93.37
